Time;durP1;ratioP1;P1;durP2;ratioP2;P2;SDS_P1;SDS_P2;PMS_P1;PMS_P2;Temp;Humidity;BMP_temperature;BMP_pressure;BME280_temperature;BME280_humidity;BME280_pressure;Samples;Min_cycle;Max_cycle;Signal;HPM_P1;HPM_P2
2023/05/19 00:00:56;;;;;;;;;2.75;2.75;;;;;11.46;64.93;102812.84;5030536;28;10101;-66
2023/05/19 00:03:24;;;;;;;;;4.00;3.50;;;;;11.44;65.42;102814.88;5028192;28;10117;-66
2023/05/19 00:05:52;;;;;;;;;4.50;4.50;;;;;11.43;65.18;102805.94;5031070;28;10067;-66
2023/05/19 00:08:22;;;;;;;;;4.75;4.00;;;;;11.29;65.41;102807.28;5030777;28;10124;-66
2023/05/19 00:10:48;;;;;;;;;5.00;3.00;;;;;11.33;66.37;102803.28;5030979;28;10217;-66
2023/05/19 00:13:15;;;;;;;;;3.00;2.00;;;;;11.32;65.43;102801.59;5030101;28;10163;-66
2023/05/19 00:15:42;;;;;;;;;3.00;3.00;;;;;11.19;66.02;102792.19;5024050;28;10009;-66
2023/05/19 00:18:08;;;;;;;;;6.25;4.00;;;;;11.21;66.93;102798.25;5031078;28;10185;-66
2023/05/19 00:20:36;;;;;;;;;4.50;4.00;;;;;11.28;66.56;102802.91;5030874;28;10369;-66
2023/05/19 00:23:03;;;;;;;;;2.00;2.00;;;;;11.34;66.59;102799.63;5017025;28;10208;-66
2023/05/19 00:25:29;;;;;;;;;5.50;5.50;;;;;11.38;66.64;102798.31;5029037;28;10217;-66
2023/05/19 00:27:58;;;;;;;;;1.75;1.75;;;;;11.44;66.44;102794.16;5026076;28;10154;-66
2023/05/19 00:30:24;;;;;;;;;6.00;5.00;;;;;11.36;65.60;102784.13;5030910;28;10164;-66
2023/05/19 00:32:51;;;;;;;;;9.00;4.00;;;;;11.18;66.57;102785.94;5043657;28;10066;-66
2023/05/19 00:35:18;;;;;;;;;5.00;2.00;;;;;11.10;66.99;102789.38;5028510;28;10070;-66
2023/05/19 00:37:45;;;;;;;;;5.75;4.75;;;;;11.11;67.14;102785.69;5030044;28;10023;-66
2023/05/19 00:40:12;;;;;;;;;3.00;3.00;;;;;11.10;67.40;102794.78;5028927;28;10118;-66
2023/05/19 00:42:40;;;;;;;;;4.00;3.00;;;;;11.14;67.26;102792.63;5030422;28;10244;-66
2023/05/19 00:45:07;;;;;;;;;3.00;3.00;;;;;11.20;67.44;102792.00;5031170;28;10206;-66
2023/05/19 00:47:33;;;;;;;;;2.00;1.75;;;;;11.24;67.22;102782.63;5034308;28;10776;-66
2023/05/19 00:50:00;;;;;;;;;2.00;2.00;;;;;11.26;67.37;102791.44;5029493;28;10143;-66
2023/05/19 00:52:27;;;;;;;;;3.50;2.75;;;;;11.28;67.45;102781.31;5025455;28;10182;-66
2023/05/19 00:54:54;;;;;;;;;4.25;4.00;;;;;11.23;66.06;102789.03;5023658;28;10178;-66
2023/05/19 00:57:21;;;;;;;;;5.00;2.00;;;;;11.21;67.32;102787.47;5050061;28;10235;-66
2023/05/19 00:59:48;;;;;;;;;5.50;3.00;;;;;11.27;67.06;102781.50;5028789;28;10164;-66
2023/05/19 01:02:14;;;;;;;;;5.00;3.75;;;;;11.31;67.21;102789.13;5027638;28;10201;-66
2023/05/19 01:04:43;;;;;;;;;4.25;2.75;;;;;11.37;67.07;102777.72;5030247;28;10191;-66
2023/05/19 01:07:11;;;;;;;;;4.00;4.00;;;;;11.35;66.44;102774.34;5026296;28;9978;-66
2023/05/19 01:09:39;;;;;;;;;2.00;1.00;;;;;11.34;67.32;102779.88;5035367;28;10183;-66
2023/05/19 01:12:07;;;;;;;;;3.75;3.75;;;;;11.34;67.45;102769.94;5028829;28;10156;-66
2023/05/19 01:14:34;;;;;;;;;3.00;3.00;;;;;11.33;67.08;102775.47;5028962;28;9929;-66
2023/05/19 01:17:08;;;;;;;;;1.25;1.25;;;;;11.36;67.07;102772.47;5028190;28;10084;-66
2023/05/19 01:20:05;;;;;;;;;1.50;1.50;;;;;11.38;67.21;102774.03;5031066;28;10824;-66
2023/05/19 01:23:22;;;;;;;;;3.50;3.50;;;;;11.31;67.10;102772.09;5031972;28;10707;-66
2023/05/19 01:25:52;;;;;;;;;6.00;6.00;;;;;11.23;67.85;102778.25;4942175;28;10338;-66
2023/05/19 01:28:18;;;;;;;;;3.50;3.50;;;;;11.25;68.00;102776.22;5034031;28;10154;-66
2023/05/19 01:30:51;;;;;;;;;2.25;2.00;;;;;11.23;67.56;102763.91;5013131;28;10248;-66
2023/05/19 01:33:19;;;;;;;;;3.00;3.00;;;;;11.23;68.01;102766.63;5024420;28;10294;-66
2023/05/19 01:35:47;;;;;;;;;1.25;1.00;;;;;11.25;68.03;102759.22;5026832;28;10999;-66
2023/05/19 01:38:16;;;;;;;;;3.75;3.00;;;;;11.22;67.50;102760.38;5044316;28;10854;-66
2023/05/19 01:40:45;;;;;;;;;5.50;4.25;;;;;11.18;67.84;102747.34;5027443;28;10104;-66
2023/05/19 01:43:17;;;;;;;;;6.00;3.75;;;;;11.14;68.13;102754.91;5026895;28;10271;-66
2023/05/19 01:45:44;;;;;;;;;4.75;4.75;;;;;11.13;68.39;102755.88;5028924;28;10160;-66
2023/05/19 01:48:12;;;;;;;;;1.25;1.00;;;;;11.10;68.59;102751.66;5036027;28;10289;-66
2023/05/19 01:50:40;;;;;;;;;4.00;4.00;;;;;11.12;68.76;102757.72;5024047;28;10316;-66
2023/05/19 01:53:06;;;;;;;;;4.50;2.00;;;;;11.20;68.54;102751.59;5028640;28;10384;-66
2023/05/19 01:55:43;;;;;;;;;4.00;4.00;;;;;11.25;68.50;102748.44;5029928;28;10271;-65
2023/05/19 01:58:31;;;;;;;;;3.50;3.50;;;;;11.23;67.82;102751.28;5043967;28;10214;-66
2023/05/19 02:01:26;;;;;;;;;7.00;4.25;;;;;11.21;68.50;102753.28;5025160;28;10272;-66
2023/05/19 02:04:17;;;;;;;;;4.25;4.25;;;;;11.16;68.39;102757.44;5027382;28;10200;-66
2023/05/19 02:06:50;;;;;;;;;6.50;4.50;;;;;11.05;68.37;102751.22;5043687;28;10395;-66
2023/05/19 02:09:25;;;;;;;;;5.50;4.50;;;;;11.00;68.81;102758.09;5036832;28;10424;-66
2023/05/19 02:12:02;;;;;;;;;5.00;4.25;;;;;10.88;69.16;102752.03;5048156;28;10285;-66
2023/05/19 02:14:34;;;;;;;;;9.00;5.00;;;;;10.83;69.12;102757.03;5031644;28;10154;-66
2023/05/19 02:17:03;;;;;;;;;7.00;4.50;;;;;10.82;70.06;102750.81;5048290;28;11107;-66
2023/05/19 02:19:32;;;;;;;;;3.00;3.00;;;;;10.83;69.78;102749.81;5031486;28;10945;-66
2023/05/19 02:21:58;;;;;;;;;4.75;3.25;;;;;10.92;69.87;102750.75;5017237;28;10465;-66
2023/05/19 02:24:25;;;;;;;;;6.00;6.00;;;;;10.98;69.95;102741.19;5031189;28;11092;-66
2023/05/19 02:26:52;;;;;;;;;6.25;4.50;;;;;10.98;69.73;102738.50;5045398;28;10985;-66
2023/05/19 02:29:19;;;;;;;;;8.00;5.50;;;;;10.96;69.89;102744.06;5031789;28;10389;-66
2023/05/19 02:31:46;;;;;;;;;3.25;3.25;;;;;11.02;69.58;102739.91;5022841;28;10247;-66
2023/05/19 02:34:13;;;;;;;;;2.25;2.00;;;;;11.06;69.54;102744.00;5031832;28;10383;-66
2023/05/19 02:36:41;;;;;;;;;3.00;3.00;;;;;11.05;69.50;102745.00;5032252;28;10244;-66
2023/05/19 02:39:09;;;;;;;;;6.00;3.00;;;;;11.03;69.48;102737.06;5039883;28;10362;-66
2023/05/19 02:41:37;;;;;;;;;4.50;4.50;;;;;10.96;69.94;102737.81;5031592;28;10360;-66
2023/05/19 02:44:03;;;;;;;;;5.00;3.00;;;;;10.92;69.98;102733.75;5043836;28;10326;-66
2023/05/19 02:46:31;;;;;;;;;8.50;6.50;;;;;10.96;69.96;102732.44;5047150;28;10150;-66
2023/05/19 02:48:58;;;;;;;;;5.00;3.00;;;;;11.01;70.03;102732.81;5046552;28;10103;-66
2023/05/19 02:51:24;;;;;;;;;2.00;2.00;;;;;11.02;69.85;102729.13;5032355;28;10239;-66
2023/05/19 02:53:51;;;;;;;;;6.50;4.25;;;;;11.03;69.91;102725.44;5029409;28;10185;-66
2023/05/19 02:56:17;;;;;;;;;6.00;6.00;;;;;10.99;69.65;102735.69;5027091;28;10890;-66
2023/05/19 02:58:44;;;;;;;;;4.50;4.00;;;;;10.95;70.40;102736.97;5015041;28;10239;-66
2023/05/19 03:01:10;;;;;;;;;4.00;4.00;;;;;10.98;70.52;102736.69;5030817;28;10158;-66
2023/05/19 03:03:37;;;;;;;;;2.50;2.00;;;;;11.03;70.14;102738.94;5044516;28;10211;-66
2023/05/19 03:06:07;;;;;;;;;5.75;3.75;;;;;11.05;70.29;102724.28;5028392;28;10249;-66
2023/05/19 03:08:34;;;;;;;;;2.00;2.00;;;;;11.08;70.08;102726.69;5031579;28;10307;-66
2023/05/19 03:11:02;;;;;;;;;4.50;3.00;;;;;11.07;70.34;102721.47;5032010;28;10922;-67
2023/05/19 03:13:28;;;;;;;;;5.00;5.00;;;;;10.97;69.46;102723.34;5030270;28;10288;-67
2023/05/19 03:15:57;;;;;;;;;2.00;2.00;;;;;10.88;70.30;102725.09;5046741;28;10391;-64
2023/05/19 03:18:27;;;;;;;;;5.00;3.75;;;;;10.81;70.97;102722.16;5029659;28;10138;-66
2023/05/19 03:20:53;;;;;;;;;2.25;2.00;;;;;10.80;70.82;102719.63;5042633;28;10225;-64
2023/05/19 03:23:21;;;;;;;;;4.50;4.50;;;;;10.81;70.26;102722.16;5030589;28;10350;-65
2023/05/19 03:25:47;;;;;;;;;5.00;3.00;;;;;10.84;71.39;102721.84;5021920;28;10373;-66
2023/05/19 03:28:14;;;;;;;;;2.00;2.00;;;;;10.86;70.63;102722.56;5042578;28;10249;-66
2023/05/19 03:30:41;;;;;;;;;5.00;3.00;;;;;10.86;71.21;102722.56;5031106;28;10391;-66
2023/05/19 03:33:11;;;;;;;;;5.25;5.00;;;;;10.90;70.44;102720.44;5024225;28;10493;-66
2023/05/19 03:35:39;;;;;;;;;5.00;4.25;;;;;10.78;70.75;102714.38;5030417;28;10342;-65
2023/05/19 03:38:05;;;;;;;;;6.25;5.25;;;;;10.79;71.68;102709.84;5030984;28;10224;-66
2023/05/19 03:40:32;;;;;;;;;6.00;4.00;;;;;10.82;71.33;102710.41;5046512;28;10938;-65
2023/05/19 03:43:05;;;;;;;;;5.00;5.00;;;;;10.86;71.52;102711.78;5029899;28;10494;-65
2023/05/19 03:45:36;;;;;;;;;4.00;4.00;;;;;10.91;71.17;102711.34;5026679;28;10406;-65
2023/05/19 03:48:20;;;;;;;;;2.00;2.00;;;;;10.93;70.92;102701.25;5030545;28;10296;-65
2023/05/19 03:51:17;;;;;;;;;4.25;2.00;;;;;10.93;71.44;102709.31;5028752;28;10361;-65
2023/05/19 03:53:45;;;;;;;;;3.00;3.00;;;;;10.96;71.34;102710.88;5045009;28;10426;-65
2023/05/19 03:56:12;;;;;;;;;3.00;3.00;;;;;10.96;71.57;102710.88;5030069;28;10072;-66
2023/05/19 03:58:43;;;;;;;;;2.00;2.00;;;;;10.93;71.42;102708.47;5041651;28;10240;-66
2023/05/19 04:01:10;;;;;;;;;5.75;4.00;;;;;10.86;70.79;102705.56;5029672;28;10139;-66
2023/05/19 04:03:36;;;;;;;;;2.00;2.00;;;;;10.81;71.23;102714.06;5029938;28;10307;-66
2023/05/19 04:06:03;;;;;;;;;8.50;8.50;;;;;10.78;71.21;102711.69;5027718;28;10220;-66
2023/05/19 04:08:30;;;;;;;;;4.00;4.00;;;;;10.77;71.90;102715.38;5026712;28;10312;-66
2023/05/19 04:10:57;;;;;;;;;8.00;5.00;;;;;10.77;71.53;102714.53;5027172;28;10261;-66
2023/05/19 04:13:24;;;;;;;;;5.00;5.00;;;;;10.78;71.89;102722.47;5020973;28;10233;-66
2023/05/19 04:15:51;;;;;;;;;2.00;2.00;;;;;10.74;72.53;102715.69;5045740;28;10318;-66
2023/05/19 04:18:17;;;;;;;;;4.00;2.75;;;;;10.74;72.57;102720.22;5027930;28;10261;-65
2023/05/19 04:20:44;;;;;;;;;3.50;3.50;;;;;10.78;72.43;102721.63;5030531;28;10260;-65
2023/05/19 04:23:10;;;;;;;;;7.50;7.00;;;;;10.81;71.51;102721.31;5029577;28;10904;-66
2023/05/19 04:25:37;;;;;;;;;6.25;5.00;;;;;10.76;72.15;102729.00;5028760;28;10462;-65
2023/05/19 04:28:03;;;;;;;;;5.50;5.00;;;;;10.71;72.07;102723.22;5046835;28;10313;-65
2023/05/19 04:30:30;;;;;;;;;7.00;7.00;;;;;10.59;72.52;102731.47;5029173;28;10384;-65
2023/05/19 04:32:58;;;;;;;;;7.25;5.00;;;;;10.52;72.65;102727.66;5028487;28;10503;-65
2023/05/19 04:35:24;;;;;;;;;5.00;5.00;;;;;10.52;73.04;102719.59;5094768;22;10497;-67
2023/05/19 04:37:53;;;;;;;;;6.00;6.00;;;;;10.53;72.78;102720.44;5065197;28;11150;-66
2023/05/19 04:40:26;;;;;;;;;9.00;9.00;;;;;10.53;73.02;102720.44;5080754;28;10461;-67
2023/05/19 04:42:52;;;;;;;;;8.00;8.00;;;;;10.48;73.14;102723.56;5060576;28;11218;-66
2023/05/19 04:45:19;;;;;;;;;15.75;13.00;;;;;10.45;73.46;102723.91;5037923;28;10489;-69
2023/05/19 04:47:49;;;;;;;;;13.25;11.00;;;;;10.43;73.87;102722.34;5048790;28;10622;-69
2023/05/19 04:50:16;;;;;;;;;13.25;11.50;;;;;10.49;73.78;102717.22;5048670;28;10537;-68
2023/05/19 04:52:46;;;;;;;;;17.00;13.00;;;;;10.52;73.76;102716.91;5060880;28;10542;-67
2023/05/19 04:55:13;;;;;;;;;15.50;14.50;;;;;10.54;73.65;102723.00;5047005;28;10653;-67
2023/05/19 04:57:40;;;;;;;;;12.25;10.50;;;;;10.67;74.12;102729.91;5056094;28;10635;-68
2023/05/19 05:00:11;;;;;;;;;15.50;10.75;;;;;10.81;73.10;102730.22;5057657;28;10620;-67
2023/05/19 05:02:50;;;;;;;;;13.00;10.50;;;;;10.94;72.88;102734.41;5044656;28;10452;-67
2023/05/19 05:05:19;;;;;;;;;16.25;12.25;;;;;10.95;72.63;102736.13;5046283;28;10476;-66
2023/05/19 05:07:46;;;;;;;;;13.25;10.75;;;;;10.97;72.47;102734.97;5064578;28;10698;-65
2023/05/19 05:10:13;;;;;;;;;13.25;11.00;;;;;11.01;72.35;102740.91;5045183;28;10415;-67
2023/05/19 05:12:39;;;;;;;;;9.00;8.00;;;;;11.06;72.65;102739.47;5047032;28;10484;-65
2023/05/19 05:15:07;;;;;;;;;8.00;6.50;;;;;11.11;72.21;102745.25;5049917;28;10392;-64
2023/05/19 05:17:34;;;;;;;;;8.00;8.00;;;;;11.17;72.32;102730.31;5048335;28;10188;-65
2023/05/19 05:20:04;;;;;;;;;7.75;7.75;;;;;11.20;71.78;102735.41;5031880;28;10353;-65
2023/05/19 05:22:31;;;;;;;;;11.50;8.00;;;;;11.22;71.97;102737.94;5065171;28;10331;-66
2023/05/19 05:24:58;;;;;;;;;10.50;6.75;;;;;11.23;71.58;102747.75;5047127;28;10383;-66
2023/05/19 05:27:25;;;;;;;;;6.50;6.50;;;;;11.17;72.21;102743.78;5038372;28;10211;-65
2023/05/19 05:29:53;;;;;;;;;8.75;7.25;;;;;11.17;72.25;102754.56;5048185;28;10226;-67
2023/05/19 05:32:20;;;;;;;;;8.00;6.50;;;;;11.23;72.37;102751.28;5048354;28;10224;-67
2023/05/19 05:34:47;;;;;;;;;4.25;4.25;;;;;11.35;72.72;102744.69;5041517;28;10460;-65
2023/05/19 05:37:14;;;;;;;;;7.00;4.50;;;;;11.47;71.60;102749.84;5058413;28;10400;-66
2023/05/19 05:39:41;;;;;;;;;8.50;6.75;;;;;11.49;71.82;102748.69;5044621;28;10169;-66
2023/05/19 05:42:09;;;;;;;;;10.75;10.75;;;;;11.51;70.96;102746.69;5040646;28;10306;-67
2023/05/19 05:44:37;;;;;;;;;10.50;9.75;;;;;11.51;71.33;102751.25;5045698;28;10453;-67
2023/05/19 05:47:05;;;;;;;;;10.00;10.00;;;;;11.51;71.31;102748.53;5029824;28;10182;-66
2023/05/19 05:49:31;;;;;;;;;9.00;9.00;;;;;11.60;71.62;102747.63;5048007;28;10313;-66
2023/05/19 05:51:58;;;;;;;;;11.25;10.75;;;;;11.66;70.67;102752.38;5049999;28;10923;-66
2023/05/19 05:54:36;;;;;;;;;6.00;5.00;;;;;11.76;71.18;102749.63;5044988;28;10104;-66
2023/05/19 05:57:03;;;;;;;;;9.00;8.25;;;;;11.89;69.86;102752.78;5028868;28;10950;-67
2023/05/19 05:59:30;;;;;;;;;12.50;11.25;;;;;11.86;69.81;102748.53;5032807;28;10129;-66
2023/05/19 06:01:56;;;;;;;;;13.25;10.00;;;;;11.85;69.60;102746.00;5065245;28;10158;-66
2023/05/19 06:04:24;;;;;;;;;8.00;6.25;;;;;11.92;70.20;102741.69;5049340;28;10216;-66
2023/05/19 06:06:55;;;;;;;;;10.75;9.75;;;;;11.98;70.19;102745.59;5065294;28;10146;-67
2023/05/19 06:09:23;;;;;;;;;6.25;6.25;;;;;12.11;69.90;102746.03;5065044;28;10306;-66
2023/05/19 06:11:50;;;;;;;;;11.50;9.75;;;;;12.21;68.09;102746.78;5048616;28;10168;-65
2023/05/19 06:14:17;;;;;;;;;11.50;8.50;;;;;12.20;68.30;102749.66;5064533;28;10784;-67
2023/05/19 06:17:02;;;;;;;;;6.00;6.00;;;;;12.23;69.05;102746.63;5065106;28;10179;-66
2023/05/19 06:19:29;;;;;;;;;7.25;7.25;;;;;12.25;68.50;102748.16;5065074;28;10097;-66
2023/05/19 06:21:55;;;;;;;;;9.25;8.25;;;;;12.24;68.72;102751.88;5065060;28;9977;-66
2023/05/19 06:24:22;;;;;;;;;9.25;9.00;;;;;12.16;68.21;102748.28;5064221;28;10032;-66
2023/05/19 06:26:48;;;;;;;;;10.75;9.75;;;;;12.09;68.88;102745.34;5065248;28;10206;-65
2023/05/19 06:29:17;;;;;;;;;10.00;7.00;;;;;12.11;68.70;102744.19;5064558;28;9917;-66
2023/05/19 06:31:43;;;;;;;;;9.00;6.25;;;;;12.17;69.16;102742.72;5065192;28;10083;-67
2023/05/19 06:34:16;;;;;;;;;10.75;9.25;;;;;12.26;68.26;102743.59;5064286;28;10087;-65
2023/05/19 06:36:44;;;;;;;;;6.50;6.50;;;;;12.28;68.54;102750.56;5065171;28;9998;-66
2023/05/19 06:39:11;;;;;;;;;8.50;7.50;;;;;12.32;68.07;102743.00;5064799;28;10202;-70
2023/05/19 06:41:39;;;;;;;;;4.75;4.75;;;;;12.34;68.13;102741.81;5065017;28;10012;-66
2023/05/19 06:44:07;;;;;;;;;6.50;6.50;;;;;12.41;68.25;102735.78;5047747;28;10099;-67
2023/05/19 06:46:34;;;;;;;;;10.00;9.00;;;;;12.46;67.77;102738.84;5065274;28;10753;-66
2023/05/19 06:49:01;;;;;;;;;9.50;7.00;;;;;12.46;67.39;102739.69;5048261;28;9826;-67
2023/05/19 06:51:31;;;;;;;;;6.00;6.00;;;;;12.42;68.12;102737.47;5044841;28;10014;-66
2023/05/19 06:53:58;;;;;;;;;7.75;6.00;;;;;12.40;67.95;102740.34;5028123;28;10102;-67
2023/05/19 06:56:26;;;;;;;;;12.00;10.00;;;;;12.40;68.22;102740.34;5045057;28;9859;-67
2023/05/19 06:58:52;;;;;;;;;10.50;10.50;;;;;12.32;66.95;102745.69;5032181;28;10001;-67
2023/05/19 07:01:25;;;;;;;;;13.50;9.00;;;;;12.24;67.85;102735.69;5051687;28;10036;-67
2023/05/19 07:03:53;;;;;;;;;5.75;5.75;;;;;12.25;67.13;102740.06;5051707;28;9824;-66
2023/05/19 07:06:20;;;;;;;;;7.25;6.00;;;;;12.28;67.19;102739.75;5068131;28;9997;-66
2023/05/19 07:08:47;;;;;;;;;5.00;5.00;;;;;12.32;67.55;102745.69;5051712;28;10878;-67
2023/05/19 07:11:15;;;;;;;;;11.75;7.50;;;;;12.40;67.60;102747.56;5068031;28;9914;-66
2023/05/19 07:13:42;;;;;;;;;6.75;6.25;;;;;12.45;67.49;102742.56;5051276;28;10069;-66
2023/05/19 07:16:09;;;;;;;;;7.75;5.25;;;;;12.51;67.42;102750.00;5067511;28;9997;-66
2023/05/19 07:18:37;;;;;;;;;6.75;5.75;;;;;12.56;66.79;102747.69;5067986;28;9760;-67
2023/05/19 07:21:03;;;;;;;;;5.50;5.50;;;;;12.62;66.77;102747.88;5052550;28;9898;-66
2023/05/19 07:23:30;;;;;;;;;6.50;6.50;;;;;12.68;66.30;102749.09;5067879;28;9862;-66
2023/05/19 07:25:56;;;;;;;;;7.50;4.75;;;;;12.67;66.22;102749.25;5067432;28;9888;-66
2023/05/19 07:28:23;;;;;;;;;5.50;5.50;;;;;12.69;66.33;102748.09;5051154;28;9849;-66
2023/05/19 07:30:50;;;;;;;;;6.25;6.25;;;;;12.71;66.19;102748.75;5052753;28;9940;-67
2023/05/19 07:33:17;;;;;;;;;8.00;8.00;;;;;12.76;65.95;102743.72;5052140;28;10008;-67
2023/05/19 07:35:44;;;;;;;;;9.25;7.00;;;;;12.80;65.48;102746.94;5050537;28;9941;-67
2023/05/19 07:38:11;;;;;;;;;7.00;7.00;;;;;12.78;65.51;102746.25;5052078;28;10010;-67
2023/05/19 07:40:37;;;;;;;;;7.75;6.50;;;;;12.73;65.01;102754.00;5067209;28;9929;-67
2023/05/19 07:43:04;;;;;;;;;7.25;7.25;;;;;12.69;65.44;102750.78;5051246;28;9970;-67
2023/05/19 07:45:30;;;;;;;;;10.50;9.75;;;;;12.72;65.52;102745.06;5066718;28;9958;-66
2023/05/19 07:47:57;;;;;;;;;14.75;10.00;;;;;12.75;65.81;102751.97;5051931;28;11052;-67
2023/05/19 07:50:24;;;;;;;;;8.00;8.00;;;;;12.77;65.55;102741.88;5051720;28;9997;-66
2023/05/19 07:52:50;;;;;;;;;8.50;7.25;;;;;12.72;65.20;102755.00;5051540;28;10146;-66
2023/05/19 07:55:18;;;;;;;;;11.75;8.25;;;;;12.64;65.37;102745.03;5051448;28;9905;-66
2023/05/19 07:57:44;;;;;;;;;10.00;9.00;;;;;12.60;65.66;102751.75;5051892;28;10070;-67
2023/05/19 08:00:11;;;;;;;;;8.00;8.00;;;;;12.55;65.79;102738.72;5050114;28;10019;-66
2023/05/19 08:02:37;;;;;;;;;7.00;6.00;;;;;12.59;65.86;102734.69;5052044;28;10006;-66
2023/05/19 08:05:05;;;;;;;;;10.00;8.75;;;;;12.69;65.98;102741.84;5051079;28;10473;-65
2023/05/19 08:07:31;;;;;;;;;11.75;9.50;;;;;12.74;65.18;102737.63;5051702;28;10007;-66
2023/05/19 08:09:58;;;;;;;;;7.50;6.75;;;;;12.80;65.44;102734.28;5051546;28;9999;-66
2023/05/19 08:12:24;;;;;;;;;7.75;7.00;;;;;12.89;64.78;102727.06;5051472;28;9839;-66
2023/05/19 08:14:51;;;;;;;;;6.75;6.75;;;;;13.02;65.08;102723.88;5051122;28;9878;-66
2023/05/19 08:17:18;;;;;;;;;9.00;7.25;;;;;13.13;64.47;102726.28;5050289;28;9750;-65
2023/05/19 08:19:44;;;;;;;;;11.50;10.00;;;;;13.19;63.83;102730.19;5051497;28;9969;-66
2023/05/19 08:22:11;;;;;;;;;10.25;8.00;;;;;13.20;63.34;102721.88;5051415;28;10008;-66
2023/05/19 08:24:38;;;;;;;;;10.00;10.00;;;;;13.22;63.46;102724.44;5050156;28;9869;-66
2023/05/19 08:27:05;;;;;;;;;15.00;10.00;;;;;13.25;63.32;102719.59;5051719;28;9924;-69
2023/05/19 08:29:32;;;;;;;;;9.50;9.00;;;;;13.31;63.31;102720.78;5051387;28;9753;-68
2023/05/19 08:31:59;;;;;;;;;9.25;9.00;;;;;13.40;63.36;102710.81;5068536;28;10353;-68
2023/05/19 08:34:25;;;;;;;;;7.00;6.50;;;;;13.49;62.86;102717.91;5051596;28;10004;-66
2023/05/19 08:36:52;;;;;;;;;8.25;8.25;;;;;13.55;62.82;102703.72;5051515;28;9684;-66
2023/05/19 08:39:23;;;;;;;;;9.75;7.00;;;;;13.66;62.95;102706.09;5052469;28;9749;-66
2023/05/19 08:41:49;;;;;;;;;11.75;11.00;;;;;13.74;62.24;102711.53;5052000;28;9829;-67
2023/05/19 08:44:16;;;;;;;;;8.00;8.00;;;;;13.79;61.98;102701.03;5050660;28;9859;-67
2023/05/19 08:46:46;;;;;;;;;16.50;9.75;;;;;13.71;61.22;102706.44;5051251;28;9831;-67
2023/05/19 08:49:15;;;;;;;;;14.50;11.25;;;;;13.62;61.81;102703.91;5051196;28;9764;-65
2023/05/19 08:52:23;;;;;;;;;10.25;8.50;;;;;13.62;62.82;102704.75;5051306;28;9682;-65
2023/05/19 08:54:54;;;;;;;;;7.50;7.50;;;;;13.69;62.05;102703.03;5050711;28;9689;-65
2023/05/19 08:57:23;;;;;;;;;9.75;8.00;;;;;13.75;61.88;102704.25;5066042;28;9755;-65
2023/05/19 08:59:51;;;;;;;;;10.75;10.75;;;;;13.74;61.49;102706.09;5050490;28;9778;-65
2023/05/19 09:02:18;;;;;;;;;11.25;9.00;;;;;13.78;60.47;102701.19;5050708;28;9769;-66
2023/05/19 09:04:46;;;;;;;;;12.75;12.75;;;;;13.75;60.65;102691.53;5050059;28;9774;-65
2023/05/19 09:07:14;;;;;;;;;8.00;8.00;;;;;13.73;60.83;102699.00;5050775;28;9803;-65
2023/05/19 09:09:42;;;;;;;;;13.25;10.50;;;;;13.78;60.77;102693.91;5050572;28;9901;-66
2023/05/19 09:12:10;;;;;;;;;12.00;10.25;;;;;13.88;61.36;102699.16;5050681;28;10681;-66
2023/05/19 09:14:37;;;;;;;;;11.50;9.00;;;;;14.00;61.38;102702.34;5065422;28;10493;-66
2023/05/19 09:17:05;;;;;;;;;11.75;11.00;;;;;14.10;61.40;102700.31;5050514;28;9754;-66
2023/05/19 09:19:31;;;;;;;;;12.00;9.00;;;;;14.17;61.69;102697.75;5049592;28;9811;-66
2023/05/19 09:22:00;;;;;;;;;10.00;10.00;;;;;14.26;60.84;102702.13;5050445;28;9602;-65
2023/05/19 09:24:27;;;;;;;;;13.75;12.00;;;;;14.23;61.25;102697.06;5049671;28;9750;-66
2023/05/19 09:26:56;;;;;;;;;16.75;13.00;;;;;14.27;61.83;102701.97;5049525;28;9679;-65
2023/05/19 09:29:25;;;;;;;;;9.25;9.00;;;;;14.38;61.72;102697.19;5049958;28;9525;-66
2023/05/19 09:31:54;;;;;;;;;11.00;8.00;;;;;14.43;61.25;102703.78;5050181;28;10684;-66
2023/05/19 09:34:23;;;;;;;;;15.50;13.25;;;;;14.42;61.98;102695.81;5049292;28;9687;-66
2023/05/19 09:36:52;;;;;;;;;11.75;8.00;;;;;14.44;61.15;102691.91;5050256;28;10526;-65
2023/05/19 09:39:20;;;;;;;;;10.50;8.50;;;;;14.50;60.65;102688.56;5065049;28;9702;-66
2023/05/19 09:41:50;;;;;;;;;14.00;10.00;;;;;14.50;60.17;102688.56;5050171;28;9844;-65
2023/05/19 09:44:22;;;;;;;;;10.00;8.00;;;;;14.57;60.23;102686.81;5049642;28;9684;-67
2023/05/19 09:46:49;;;;;;;;;8.50;7.75;;;;;14.63;59.78;102688.00;5050081;28;9546;-68
2023/05/19 09:49:20;;;;;;;;;7.25;7.00;;;;;14.75;60.29;102692.00;5049844;28;9530;-67
2023/05/19 09:51:53;;;;;;;;;12.00;10.75;;;;;14.82;58.72;102702.97;5050145;28;9538;-66
2023/05/19 09:54:22;;;;;;;;;12.50;11.25;;;;;14.79;57.38;102693.34;5049610;28;9733;-66
2023/05/19 09:57:15;;;;;;;;;11.75;11.00;;;;;14.84;57.92;102692.81;5048819;28;9712;-65
2023/05/19 09:59:42;;;;;;;;;8.75;7.50;;;;;14.95;57.88;102688.84;5049614;28;9689;-66
2023/05/19 10:02:16;;;;;;;;;9.75;9.75;;;;;14.96;55.95;102694.09;5050056;28;9372;-65
2023/05/19 10:04:43;;;;;;;;;7.75;6.75;;;;;14.97;55.39;102690.34;5049507;28;9627;-66
2023/05/19 10:07:14;;;;;;;;;8.50;7.00;;;;;15.03;56.41;102683.41;5048805;28;9392;-65
2023/05/19 10:09:41;;;;;;;;;7.25;7.25;;;;;15.14;56.37;102685.69;5049645;28;9642;-66
2023/05/19 10:12:09;;;;;;;;;6.00;6.00;;;;;15.23;55.13;102681.91;5050033;28;9438;-66
2023/05/19 10:14:37;;;;;;;;;14.50;12.25;;;;;15.18;53.68;102673.44;5049535;28;9385;-66
2023/05/19 10:17:03;;;;;;;;;6.75;6.75;;;;;15.14;53.96;102666.69;5049720;28;9609;-65
2023/05/19 10:19:30;;;;;;;;;6.25;5.25;;;;;15.26;53.58;102676.09;5049450;28;9678;-66
2023/05/19 10:21:57;;;;;;;;;11.50;8.25;;;;;15.32;53.33;102671.84;5049797;28;9549;-67
2023/05/19 10:24:23;;;;;;;;;6.75;6.75;;;;;15.40;51.86;102677.19;5049307;28;9543;-67
2023/05/19 10:27:02;;;;;;;;;8.25;7.00;;;;;15.41;52.12;102678.03;5049785;28;9613;-67
2023/05/19 10:29:32;;;;;;;;;7.00;5.00;;;;;15.42;52.65;102664.28;5049490;28;9373;-67
2023/05/19 10:32:05;;;;;;;;;11.50;6.25;;;;;15.54;53.61;102659.25;5066190;28;9373;-67
2023/05/19 10:34:50;;;;;;;;;6.00;6.00;;;;;15.60;52.45;102663.97;5055452;23;9540;-66
2023/05/19 10:37:44;;;;;;;;;6.00;6.00;;;;;15.69;52.69;102662.06;5013647;28;9432;-66
2023/05/19 10:40:28;;;;;;;;;7.00;7.00;;;;;15.66;51.47;102660.53;5001441;28;9384;-66
2023/05/19 10:43:01;;;;;;;;;11.00;10.50;;;;;15.64;50.27;102656.28;4993814;28;9554;-66
2023/05/19 10:45:33;;;;;;;;;7.00;6.00;;;;;15.58;49.93;102661.44;5003720;28;9730;-66
2023/05/19 10:48:00;;;;;;;;;6.67;6.00;;;;;15.52;50.85;102655.91;5012264;28;9460;-66
2023/05/19 10:50:35;;;;;;;;;6.00;6.00;;;;;15.52;50.44;102650.47;5001981;28;9342;-66
2023/05/19 10:53:02;;;;;;;;;4.67;4.67;;;;;15.54;50.03;102648.41;4993852;28;9439;-66
2023/05/19 10:56:03;;;;;;;;;7.00;6.00;;;;;15.57;47.43;102648.88;4994397;28;9253;-66
2023/05/19 10:58:42;;;;;;;;;6.00;6.00;;;;;15.63;47.50;102658.16;4994759;28;9383;-66
2023/05/19 11:01:13;;;;;;;;;4.67;2.00;;;;;15.66;48.07;102641.53;4993984;28;9344;-66
2023/05/19 11:03:48;;;;;;;;;7.00;4.67;;;;;15.69;48.62;102651.19;4992390;28;9247;-67
2023/05/19 11:06:26;;;;;;;;;6.00;6.00;;;;;15.72;47.46;102651.69;5010949;28;10004;-67
2023/05/19 11:08:57;;;;;;;;;5.00;5.00;;;;;15.74;48.03;102641.47;5013289;28;9292;-66
2023/05/19 11:11:25;;;;;;;;;5.67;5.00;;;;;15.68;48.27;102639.50;4976314;28;9252;-67
2023/05/19 11:13:53;;;;;;;;;8.67;6.67;;;;;15.66;47.93;102644.25;4995868;28;9254;-66
2023/05/19 11:16:47;;;;;;;;;6.33;4.33;;;;;15.66;46.53;102646.97;4993359;28;9333;-66
2023/05/19 11:19:18;;;;;;;;;3.00;3.00;;;;;15.73;46.64;102642.50;4991646;28;9583;-67
2023/05/19 11:21:51;;;;;;;;;6.00;5.00;;;;;15.86;46.65;102643.75;5012827;28;9253;-66
2023/05/19 11:24:38;;;;;;;;;8.33;6.00;;;;;15.91;45.64;102652.16;5010189;28;10069;-67
2023/05/19 11:27:31;;;;;;;;;11.00;8.67;;;;;15.90;46.63;102637.75;4991703;28;10077;-67
2023/05/19 11:30:10;;;;;;;;;6.00;5.67;;;;;15.97;46.55;102640.56;5000469;28;9455;-67
2023/05/19 11:32:43;;;;;;;;;6.33;6.00;;;;;16.01;46.74;102640.00;5011184;28;9311;-67
2023/05/19 11:35:10;;;;;;;;;6.00;6.00;;;;;16.09;45.81;102644.50;5002723;28;9387;-68